• Join FlightAware (Why Join?)
  • Login
  • US Flag 
10:39AM EDT


 

Airport Tracker/Info


-or-


 

Live Flight TrackerFlight Track Log ✈ RFZ114 ✈ 02-May-2013 ✈ YBCG / OOL - YBSU / MCY

Flight Track Log - Related Links

Times and Time Zones

All times are in EDT time to prevent confusion due to time zone crossing. See the RFZ114 flight status page for this flight to view local times or setup timezone preferences in your user account.

Time Position Orientation Groundspeed Altitude Reporting Facility
EDT Latitude Longitude Course Direction KTS MPH feet Rate Location/Type
04:39AM -28.1842 153.5208 140° Southeast 134 154 1,800  Level Aus ATC (RADAR)
04:39AM -28.1998 153.5359 140° Southeast 131 151 3,900 3,060 Climbing Aus ATC (RADAR)
04:41AM -28.1852 153.5919 74° East 165 190 7,200 2,700 Climbing Aus ATC (RADAR)
04:41AM -28.1817 153.6044 72° East 168 193 7,800 2,400 Climbing Aus ATC (RADAR)
04:41AM -28.1504 153.6148 16° North 187 215 9,400 2,280 Climbing Aus ATC (RADAR)
04:42AM -28.0993 153.6102 355° North 200 230 11,500 1,920 Climbing Aus ATC (RADAR)
04:43AM -28.0645 153.6069 355° North 214 246 12,300 960 Climbing Aus ATC (RADAR)
04:44AM -28.0025 153.6015 356° North 268 308 12,900 1,320 Climbing Aus ATC (RADAR)
04:44AM -27.9597 153.5977 356° North 261 300 14,200 1,980 Climbing Aus ATC (RADAR)
04:46AM -27.8774 153.5902 355° North 253 291 16,500 1,800 Climbing Aus ATC (RADAR)
04:46AM -27.8189 153.5854 356° North 252 290 17,800 900 Climbing Aus ATC (RADAR)
04:47AM -27.7434 153.5790 356° North 280 322 18,200 240 Climbing Aus ATC (RADAR)
04:48AM -27.6945 153.5744 355° North 298 343 18,200  Level Aus ATC (RADAR)
04:49AM -27.6116 153.5668 355° North 298 343 18,200  Level Aus ATC (RADAR)
04:50AM -27.5561 153.5621 356° North 301 346 18,200  Level Aus ATC (RADAR)
04:51AM -27.4594 153.5540 356° North 297 342 18,200  Level Aus ATC (RADAR)
04:51AM -27.4389 153.5520 355° North 297 342 18,200  Level Aus ATC (RADAR)
04:52AM -27.3914 153.5479 356° North 295 339 18,200  Level Aus ATC (RADAR)
04:53AM -27.3114 153.5406 355° North 287 330 18,200  Level Aus ATC (RADAR)
04:53AM -27.2654 153.5364 355° North 286 329 18,200  Level Aus ATC (RADAR)
04:54AM -27.1977 153.5302 355° North 293 337 18,200  Level Aus ATC (RADAR)
04:55AM -27.1440 153.5254 355° North 290 334 18,200  Level Aus ATC (RADAR)
04:56AM -27.0537 153.5176 356° North 276 318 18,200  Level Aus ATC (RADAR)
04:56AM -27.0339 153.5159 356° North 280 322 18,200 -120 Level Aus ATC (RADAR)
04:57AM -26.9802 153.5113 356° North 291 335 18,100 -720 Descending Aus ATC (RADAR)
04:58AM -26.9062 153.5046 355° North 291 335 17,100 -1,200 Descending Aus ATC (RADAR)
04:58AM -26.8577 153.5004 356° North 299 344 16,300 -1,560 Descending Aus ATC (RADAR)
04:59AM -26.7825 153.4934 355° North 296 341 14,800 -1,620 Descending Aus ATC (RADAR)
05:00AM -26.7353 153.4889 355° North 292 336 13,900 -1,800 Descending Aus ATC (RADAR)
05:01AM -26.6562 153.4320 327° Northwest 289 333 11,700 -1,800 Descending Aus ATC (RADAR)
05:02AM -26.6021 153.3921 327° Northwest 279 321 10,300 -1,920 Descending Aus ATC (RADAR)
05:03AM -26.5474 153.3524 327° Northwest 250 288 8,400 -2,160 Descending Aus ATC (RADAR)
05:03AM -26.5169 153.3295 326° Northwest 229 264 7,100 -2,040 Descending Aus ATC (RADAR)
05:04AM -26.4626 153.2893 326° Northwest 231 266 5,200 -2,100 Descending Aus ATC (RADAR)
05:05AM -26.4445 153.2618 306° West 188 216 3,800 -1,320 Descending Aus ATC (RADAR)
05:06AM -26.4444 153.1873 270° West 181 208 2,800 -660 Descending Aus ATC (RADAR)
05:06AM -26.4556 153.1755 223° Southwest 176 203 2,800  Level Aus ATC (RADAR)
05:07AM -26.4778 153.1628 207° Southwest 161 185 2,800 -600 Level Aus ATC (RADAR)
05:09AM -26.5253 153.1340 208° Southwest 110 127 1,500 -720 Descending Aus ATC (RADAR)
05:09AM -26.5454 153.1193 213° Southwest 105 121 1,100 -540 Descending Aus ATC (RADAR)
05:10AM -26.5588 153.1119 206° Southwest 95 109 800 -480 Descending Aus ATC (RADAR)
05:11AM -26.5893 153.0945 207° Southwest 95 109 200 -480 Descending Aus ATC (RADAR)